sensor_id;sensor_type;location;lat;lon;timestamp;pressure;altitude;pressure_sealevel;temperature;humidity
23361;BME280;11852;50.082;18.554;2023-07-28T00:00:41;97853.5;;;19.04;55.44
23361;BME280;11852;50.082;18.554;2023-07-28T00:01:45;97851.5;;;19.01;55.56
23361;BME280;11852;50.082;18.554;2023-07-28T00:02:51;97855.0;;;19.06;55.69
23361;BME280;11852;50.082;18.554;2023-07-28T00:03:55;97852.5;;;19.03;55.73
23361;BME280;11852;50.082;18.554;2023-07-28T00:05:00;97852.5;;;18.98;55.85
23361;BME280;11852;50.082;18.554;2023-07-28T00:06:05;97853.5;;;19.11;55.44
23361;BME280;11852;50.082;18.554;2023-07-28T00:07:10;97859.5;;;19.18;55.42
23361;BME280;11852;50.082;18.554;2023-07-28T00:08:16;97862.0;;;19.01;55.97
23361;BME280;11852;50.082;18.554;2023-07-28T00:09:25;97867.01;;;19.03;55.76
23361;BME280;11852;50.082;18.554;2023-07-28T00:10:30;97864.0;;;19.07;55.96
23361;BME280;11852;50.082;18.554;2023-07-28T00:11:36;97865.0;;;19.06;56.19
23361;BME280;11852;50.082;18.554;2023-07-28T00:12:41;97859.5;;;19.08;56.23
23361;BME280;11852;50.082;18.554;2023-07-28T00:13:45;97858.5;;;19.08;56.43
23361;BME280;11852;50.082;18.554;2023-07-28T00:14:50;97859.5;;;19.14;56.4
23361;BME280;11852;50.082;18.554;2023-07-28T00:15:55;97860.5;;;19.13;56.61
23361;BME280;11852;50.082;18.554;2023-07-28T00:17:00;97860.0;;;18.96;56.92
23361;BME280;11852;50.082;18.554;2023-07-28T00:18:06;97856.5;;;19.01;56.78
23361;BME280;11852;50.082;18.554;2023-07-28T00:19:11;97854.5;;;18.95;56.96
23361;BME280;11852;50.082;18.554;2023-07-28T00:20:17;97856.0;;;19.08;56.6
23361;BME280;11852;50.082;18.554;2023-07-28T00:21:21;97859.5;;;19.0;57.08
23361;BME280;11852;50.082;18.554;2023-07-28T00:22:27;97856.0;;;19.01;57.19
23361;BME280;11852;50.082;18.554;2023-07-28T00:23:34;97854.0;;;18.89;57.59
23361;BME280;11852;50.082;18.554;2023-07-28T00:24:38;97854.0;;;18.83;57.88
23361;BME280;11852;50.082;18.554;2023-07-28T00:25:43;97850.5;;;18.7;58.17
23361;BME280;11852;50.082;18.554;2023-07-28T00:26:48;97847.5;;;18.79;57.83
23361;BME280;11852;50.082;18.554;2023-07-28T00:27:53;97845.0;;;18.83;57.88
23361;BME280;11852;50.082;18.554;2023-07-28T00:28:58;97844.5;;;18.88;57.86
23361;BME280;11852;50.082;18.554;2023-07-28T00:30:04;97844.99;;;18.81;58.1
23361;BME280;11852;50.082;18.554;2023-07-28T00:31:09;97839.0;;;18.81;58.28
23361;BME280;11852;50.082;18.554;2023-07-28T00:32:14;97840.0;;;18.73;58.71
23361;BME280;11852;50.082;18.554;2023-07-28T00:33:19;97841.0;;;18.7;58.19
23361;BME280;11852;50.082;18.554;2023-07-28T00:34:25;97843.5;;;18.66;58.57
23361;BME280;11852;50.082;18.554;2023-07-28T00:35:30;97846.0;;;18.65;58.5
23361;BME280;11852;50.082;18.554;2023-07-28T00:36:35;97844.0;;;18.64;58.84
23361;BME280;11852;50.082;18.554;2023-07-28T00:37:40;97836.0;;;18.64;58.72
23361;BME280;11852;50.082;18.554;2023-07-28T00:38:45;97836.5;;;18.63;58.72
23361;BME280;11852;50.082;18.554;2023-07-28T00:39:49;97830.5;;;18.67;58.67
23361;BME280;11852;50.082;18.554;2023-07-28T00:40:54;97830.5;;;18.75;58.49
23361;BME280;11852;50.082;18.554;2023-07-28T00:41:59;97827.5;;;18.66;58.85
23361;BME280;11852;50.082;18.554;2023-07-28T00:43:04;97825.0;;;18.7;58.47
23361;BME280;11852;50.082;18.554;2023-07-28T00:44:09;97827.5;;;18.69;58.79
23361;BME280;11852;50.082;18.554;2023-07-28T00:45:14;97823.5;;;18.67;58.78
23361;BME280;11852;50.082;18.554;2023-07-28T00:46:18;97825.0;;;18.66;58.83
23361;BME280;11852;50.082;18.554;2023-07-28T00:47:24;97822.5;;;18.72;58.72
23361;BME280;11852;50.082;18.554;2023-07-28T00:48:29;97821.5;;;18.73;58.92
23361;BME280;11852;50.082;18.554;2023-07-28T00:49:34;97818.5;;;18.79;58.7
23361;BME280;11852;50.082;18.554;2023-07-28T00:50:42;97819.0;;;18.86;58.9
23361;BME280;11852;50.082;18.554;2023-07-28T00:51:54;97818.5;;;18.81;58.81
23361;BME280;11852;50.082;18.554;2023-07-28T00:52:59;97818.01;;;18.74;59.13
23361;BME280;11852;50.082;18.554;2023-07-28T00:54:04;97814.5;;;18.82;58.85
23361;BME280;11852;50.082;18.554;2023-07-28T00:55:09;97813.0;;;18.79;58.96
23361;BME280;11852;50.082;18.554;2023-07-28T00:56:13;97810.5;;;18.78;59.25
23361;BME280;11852;50.082;18.554;2023-07-28T00:57:18;97807.49;;;18.8;59.03
23361;BME280;11852;50.082;18.554;2023-07-28T00:58:23;97810.0;;;18.76;59.35
23361;BME280;11852;50.082;18.554;2023-07-28T00:59:28;97810.5;;;18.72;59.45
23361;BME280;11852;50.082;18.554;2023-07-28T01:00:32;97807.0;;;18.72;59.24
23361;BME280;11852;50.082;18.554;2023-07-28T01:01:37;97807.5;;;18.71;59.47
23361;BME280;11852;50.082;18.554;2023-07-28T01:02:43;97805.0;;;18.78;59.44
23361;BME280;11852;50.082;18.554;2023-07-28T01:03:49;97804.51;;;18.91;59.17
23361;BME280;11852;50.082;18.554;2023-07-28T01:04:54;97801.5;;;18.85;59.36
23361;BME280;11852;50.082;18.554;2023-07-28T01:07:14;97803.0;;;18.83;59.33
23361;BME280;11852;50.082;18.554;2023-07-28T01:08:23;97798.0;;;18.8;59.55
23361;BME280;11852;50.082;18.554;2023-07-28T01:09:28;97796.5;;;18.81;59.51
23361;BME280;11852;50.082;18.554;2023-07-28T01:10:31;97796.0;;;18.74;59.78
23361;BME280;11852;50.082;18.554;2023-07-28T01:11:36;97794.5;;;18.84;59.5
23361;BME280;11852;50.082;18.554;2023-07-28T01:12:41;97792.01;;;18.92;59.67
23361;BME280;11852;50.082;18.554;2023-07-28T01:13:46;97790.5;;;19.01;59.38
23361;BME280;11852;50.082;18.554;2023-07-28T01:14:51;97790.0;;;18.74;59.94
23361;BME280;11852;50.082;18.554;2023-07-28T01:15:56;97790.0;;;18.91;59.4
23361;BME280;11852;50.082;18.554;2023-07-28T01:17:01;97789.0;;;18.88;59.59
23361;BME280;11852;50.082;18.554;2023-07-28T01:18:06;97785.5;;;18.95;59.5
23361;BME280;11852;50.082;18.554;2023-07-28T01:19:10;97785.0;;;18.98;59.57
23361;BME280;11852;50.082;18.554;2023-07-28T01:20:15;97783.0;;;18.81;60.06
23361;BME280;11852;50.082;18.554;2023-07-28T01:21:21;97777.0;;;18.78;60.07
23361;BME280;11852;50.082;18.554;2023-07-28T01:23:51;97775.5;;;18.93;59.76
23361;BME280;11852;50.082;18.554;2023-07-28T01:26:10;97775.0;;;18.94;59.47
23361;BME280;11852;50.082;18.554;2023-07-28T01:27:15;97777.0;;;18.95;59.76
23361;BME280;11852;50.082;18.554;2023-07-28T01:28:19;97774.5;;;18.95;59.67
23361;BME280;11852;50.082;18.554;2023-07-28T01:29:25;97776.0;;;18.88;60.07
23361;BME280;11852;50.082;18.554;2023-07-28T01:30:31;97770.5;;;18.8;60.17
23361;BME280;11852;50.082;18.554;2023-07-28T01:31:36;97772.0;;;18.91;59.75
23361;BME280;11852;50.082;18.554;2023-07-28T01:32:41;97768.51;;;18.81;60.26
23361;BME280;11852;50.082;18.554;2023-07-28T01:33:46;97769.99;;;18.89;59.88
23361;BME280;11852;50.082;18.554;2023-07-28T01:34:53;97767.5;;;18.97;59.9
23361;BME280;11852;50.082;18.554;2023-07-28T01:35:58;97767.0;;;19.03;59.72
23361;BME280;11852;50.082;18.554;2023-07-28T01:37:04;97768.0;;;19.05;59.69
23361;BME280;11852;50.082;18.554;2023-07-28T01:38:08;97771.5;;;19.05;59.66
23361;BME280;11852;50.082;18.554;2023-07-28T01:39:14;97771.5;;;19.08;59.61
23361;BME280;11852;50.082;18.554;2023-07-28T01:40:19;97770.5;;;19.12;59.71
23361;BME280;11852;50.082;18.554;2023-07-28T01:41:27;97767.5;;;19.13;59.92
23361;BME280;11852;50.082;18.554;2023-07-28T01:42:33;97768.5;;;19.14;59.72
23361;BME280;11852;50.082;18.554;2023-07-28T01:43:37;97764.5;;;19.17;59.71
23361;BME280;11852;50.082;18.554;2023-07-28T01:44:42;97765.5;;;19.19;59.83
23361;BME280;11852;50.082;18.554;2023-07-28T01:45:47;97764.0;;;19.19;59.9
23361;BME280;11852;50.082;18.554;2023-07-28T01:46:53;97759.0;;;19.15;59.97
23361;BME280;11852;50.082;18.554;2023-07-28T01:47:58;97759.0;;;19.15;59.82
23361;BME280;11852;50.082;18.554;2023-07-28T01:49:02;97754.5;;;19.14;59.78
23361;BME280;11852;50.082;18.554;2023-07-28T01:50:07;97753.0;;;19.1;60.27
23361;BME280;11852;50.082;18.554;2023-07-28T01:51:12;97748.5;;;19.06;60.51
23361;BME280;11852;50.082;18.554;2023-07-28T01:52:18;97749.0;;;18.97;60.68
23361;BME280;11852;50.082;18.554;2023-07-28T01:53:23;97749.0;;;19.04;60.35
23361;BME280;11852;50.082;18.554;2023-07-28T01:54:27;97747.5;;;19.01;60.55
23361;BME280;11852;50.082;18.554;2023-07-28T01:55:32;97746.5;;;19.06;60.54
23361;BME280;11852;50.082;18.554;2023-07-28T01:56:38;97749.5;;;18.9;61.17
23361;BME280;11852;50.082;18.554;2023-07-28T01:57:49;97749.0;;;18.92;60.93
23361;BME280;11852;50.082;18.554;2023-07-28T01:58:48;97745.0;;;18.85;61.11
23361;BME280;11852;50.082;18.554;2023-07-28T01:59:54;97744.5;;;18.92;60.81
23361;BME280;11852;50.082;18.554;2023-07-28T02:00:58;97745.0;;;18.94;60.88
23361;BME280;11852;50.082;18.554;2023-07-28T02:02:06;97746.0;;;18.96;60.77
23361;BME280;11852;50.082;18.554;2023-07-28T02:03:10;97746.0;;;18.85;61.14
23361;BME280;11852;50.082;18.554;2023-07-28T02:04:15;97747.5;;;18.85;61.13
23361;BME280;11852;50.082;18.554;2023-07-28T02:05:20;97745.5;;;18.95;60.88
23361;BME280;11852;50.082;18.554;2023-07-28T02:06:25;97745.0;;;19.05;60.5
23361;BME280;11852;50.082;18.554;2023-07-28T02:07:31;97743.0;;;19.03;60.76
23361;BME280;11852;50.082;18.554;2023-07-28T02:08:37;97741.5;;;19.05;60.72
23361;BME280;11852;50.082;18.554;2023-07-28T02:09:41;97744.5;;;19.05;60.89
23361;BME280;11852;50.082;18.554;2023-07-28T02:10:46;97741.0;;;19.01;60.94
23361;BME280;11852;50.082;18.554;2023-07-28T02:11:51;97743.0;;;18.99;61.23
23361;BME280;11852;50.082;18.554;2023-07-28T02:12:56;97742.51;;;18.94;61.44
23361;BME280;11852;50.082;18.554;2023-07-28T02:14:01;97748.0;;;18.88;61.65
23361;BME280;11852;50.082;18.554;2023-07-28T02:15:07;97745.0;;;18.9;61.61
23361;BME280;11852;50.082;18.554;2023-07-28T02:16:12;97743.0;;;18.94;61.35
23361;BME280;11852;50.082;18.554;2023-07-28T02:17:18;97742.51;;;18.89;61.6
23361;BME280;11852;50.082;18.554;2023-07-28T02:18:23;97743.51;;;18.94;61.35
23361;BME280;11852;50.082;18.554;2023-07-28T02:19:28;97741.5;;;18.87;61.57
23361;BME280;11852;50.082;18.554;2023-07-28T02:20:32;97742.51;;;18.85;61.52
23361;BME280;11852;50.082;18.554;2023-07-28T02:21:37;97743.01;;;18.8;61.58
23361;BME280;11852;50.082;18.554;2023-07-28T02:22:43;97742.01;;;18.76;61.76
23361;BME280;11852;50.082;18.554;2023-07-28T02:23:48;97742.01;;;18.75;61.72
23361;BME280;11852;50.082;18.554;2023-07-28T02:24:55;97743.01;;;18.77;61.61
23361;BME280;11852;50.082;18.554;2023-07-28T02:25:59;97742.01;;;18.8;61.53
23361;BME280;11852;50.082;18.554;2023-07-28T02:27:05;97744.0;;;18.68;61.83
23361;BME280;11852;50.082;18.554;2023-07-28T02:28:10;97747.0;;;18.76;61.5
23361;BME280;11852;50.082;18.554;2023-07-28T02:29:14;97745.5;;;18.77;61.57
23361;BME280;11852;50.082;18.554;2023-07-28T02:30:19;97746.5;;;18.78;61.58
23361;BME280;11852;50.082;18.554;2023-07-28T02:31:24;97746.5;;;18.87;61.26
23361;BME280;11852;50.082;18.554;2023-07-28T02:32:29;97748.0;;;18.89;61.16
23361;BME280;11852;50.082;18.554;2023-07-28T02:33:34;97751.0;;;18.9;61.21
23361;BME280;11852;50.082;18.554;2023-07-28T02:34:38;97753.5;;;18.94;61.02
23361;BME280;11852;50.082;18.554;2023-07-28T02:35:43;97756.5;;;18.89;61.47
23361;BME280;11852;50.082;18.554;2023-07-28T02:36:48;97758.5;;;18.9;61.32
23361;BME280;11852;50.082;18.554;2023-07-28T02:37:53;97758.0;;;18.92;61.44
23361;BME280;11852;50.082;18.554;2023-07-28T02:38:57;97757.99;;;18.91;61.46
23361;BME280;11852;50.082;18.554;2023-07-28T02:40:02;97757.0;;;18.86;61.53
23361;BME280;11852;50.082;18.554;2023-07-28T02:41:07;97757.5;;;18.86;61.7
23361;BME280;11852;50.082;18.554;2023-07-28T02:42:12;97759.0;;;18.87;61.46
23361;BME280;11852;50.082;18.554;2023-07-28T02:43:17;97761.0;;;18.8;61.71
23361;BME280;11852;50.082;18.554;2023-07-28T02:44:21;97761.5;;;18.77;61.57
23361;BME280;11852;50.082;18.554;2023-07-28T02:45:26;97757.99;;;18.81;61.56
23361;BME280;11852;50.082;18.554;2023-07-28T02:46:32;97762.5;;;18.76;61.82
23361;BME280;11852;50.082;18.554;2023-07-28T02:47:37;97758.5;;;18.63;61.78
23361;BME280;11852;50.082;18.554;2023-07-28T02:48:44;97759.5;;;18.63;61.69
23361;BME280;11852;50.082;18.554;2023-07-28T02:49:49;97759.0;;;18.7;61.33
23361;BME280;11852;50.082;18.554;2023-07-28T02:50:56;97757.5;;;18.67;61.47
23361;BME280;11852;50.082;18.554;2023-07-28T02:52:02;97756.0;;;18.57;61.71
23361;BME280;11852;50.082;18.554;2023-07-28T02:53:08;97753.5;;;18.57;61.75
23361;BME280;11852;50.082;18.554;2023-07-28T02:54:13;97749.0;;;18.62;61.53
23361;BME280;11852;50.082;18.554;2023-07-28T02:55:18;97749.0;;;18.64;61.35
23361;BME280;11852;50.082;18.554;2023-07-28T02:56:23;97749.0;;;18.56;61.71
23361;BME280;11852;50.082;18.554;2023-07-28T02:57:29;97744.99;;;18.51;61.87
23361;BME280;11852;50.082;18.554;2023-07-28T02:58:37;97744.5;;;18.57;61.72
23361;BME280;11852;50.082;18.554;2023-07-28T02:59:42;97741.5;;;18.63;61.46
23361;BME280;11852;50.082;18.554;2023-07-28T03:00:47;97743.5;;;18.64;61.63
23361;BME280;11852;50.082;18.554;2023-07-28T03:01:52;97743.5;;;18.53;61.97
23361;BME280;11852;50.082;18.554;2023-07-28T03:02:57;97745.0;;;18.6;61.85
23361;BME280;11852;50.082;18.554;2023-07-28T03:04:02;97742.51;;;18.66;61.65
23361;BME280;11852;50.082;18.554;2023-07-28T03:05:07;97742.5;;;18.62;61.88
23361;BME280;11852;50.082;18.554;2023-07-28T03:06:11;97745.5;;;18.48;62.04
23361;BME280;11852;50.082;18.554;2023-07-28T03:07:16;97746.5;;;18.56;61.92
23361;BME280;11852;50.082;18.554;2023-07-28T03:08:22;97747.5;;;18.58;62.01
23361;BME280;11852;50.082;18.554;2023-07-28T03:09:27;97741.5;;;18.61;61.99
23361;BME280;11852;50.082;18.554;2023-07-28T03:10:32;97742.01;;;18.58;62.17
23361;BME280;11852;50.082;18.554;2023-07-28T03:11:36;97739.5;;;18.66;61.7
23361;BME280;11852;50.082;18.554;2023-07-28T03:12:41;97740.0;;;18.6;62.19
23361;BME280;11852;50.082;18.554;2023-07-28T03:13:46;97735.5;;;18.58;62.18
23361;BME280;11852;50.082;18.554;2023-07-28T03:14:50;97735.0;;;18.63;62.12
23361;BME280;11852;50.082;18.554;2023-07-28T03:15:55;97732.49;;;18.61;62.29
23361;BME280;11852;50.082;18.554;2023-07-28T03:17:00;97735.5;;;18.66;62.26
23361;BME280;11852;50.082;18.554;2023-07-28T03:18:06;97737.5;;;18.73;61.97
23361;BME280;11852;50.082;18.554;2023-07-28T03:19:12;97740.5;;;18.68;62.64
23361;BME280;11852;50.082;18.554;2023-07-28T03:20:17;97736.5;;;18.6;62.78
23361;BME280;11852;50.082;18.554;2023-07-28T03:21:23;97732.99;;;18.59;62.75
23361;BME280;11852;50.082;18.554;2023-07-28T03:22:29;97735.5;;;18.61;62.99
23361;BME280;11852;50.082;18.554;2023-07-28T03:23:34;97737.0;;;18.49;63.24
23361;BME280;11852;50.082;18.554;2023-07-28T03:24:39;97739.5;;;18.6;62.88
23361;BME280;11852;50.082;18.554;2023-07-28T03:25:43;97737.5;;;18.62;63.18
23361;BME280;11852;50.082;18.554;2023-07-28T03:26:50;97737.5;;;18.58;63.03
23361;BME280;11852;50.082;18.554;2023-07-28T03:27:55;97735.0;;;18.61;62.9
23361;BME280;11852;50.082;18.554;2023-07-28T03:28:59;97736.5;;;18.56;63.0
23361;BME280;11852;50.082;18.554;2023-07-28T03:30:05;97736.0;;;18.51;63.29
23361;BME280;11852;50.082;18.554;2023-07-28T03:31:09;97734.0;;;18.37;63.77
23361;BME280;11852;50.082;18.554;2023-07-28T03:32:14;97736.5;;;18.42;63.46
23361;BME280;11852;50.082;18.554;2023-07-28T03:33:19;97735.5;;;18.48;63.32
23361;BME280;11852;50.082;18.554;2023-07-28T03:34:24;97727.5;;;18.51;63.43
23361;BME280;11852;50.082;18.554;2023-07-28T03:35:29;97734.0;;;18.55;63.38
23361;BME280;11852;50.082;18.554;2023-07-28T03:36:33;97734.0;;;18.38;63.82
23361;BME280;11852;50.082;18.554;2023-07-28T03:37:38;97733.5;;;18.44;63.62
23361;BME280;11852;50.082;18.554;2023-07-28T03:38:43;97727.5;;;18.42;63.79
23361;BME280;11852;50.082;18.554;2023-07-28T03:39:49;97733.5;;;18.37;63.67
23361;BME280;11852;50.082;18.554;2023-07-28T03:40:54;97736.0;;;18.38;63.88
23361;BME280;11852;50.082;18.554;2023-07-28T03:41:59;97732.99;;;18.51;63.49
23361;BME280;11852;50.082;18.554;2023-07-28T03:43:04;97737.0;;;18.45;64.01
23361;BME280;11852;50.082;18.554;2023-07-28T03:44:08;97735.0;;;18.42;63.99
23361;BME280;11852;50.082;18.554;2023-07-28T03:45:13;97727.0;;;18.47;64.17
23361;BME280;11852;50.082;18.554;2023-07-28T03:46:19;97730.0;;;18.47;64.13
23361;BME280;11852;50.082;18.554;2023-07-28T03:47:24;97727.5;;;18.43;64.26
23361;BME280;11852;50.082;18.554;2023-07-28T03:48:29;97723.5;;;18.35;64.09
23361;BME280;11852;50.082;18.554;2023-07-28T03:49:34;97724.5;;;18.4;63.97
23361;BME280;11852;50.082;18.554;2023-07-28T03:50:40;97720.0;;;18.37;64.15
23361;BME280;11852;50.082;18.554;2023-07-28T03:51:46;97723.5;;;18.31;64.28
23361;BME280;11852;50.082;18.554;2023-07-28T03:52:51;97721.5;;;18.41;64.01
23361;BME280;11852;50.082;18.554;2023-07-28T03:53:55;97720.0;;;18.4;64.24
23361;BME280;11852;50.082;18.554;2023-07-28T03:55:01;97725.0;;;18.32;64.49
23361;BME280;11852;50.082;18.554;2023-07-28T03:56:05;97721.5;;;18.17;65.01
23361;BME280;11852;50.082;18.554;2023-07-28T03:57:10;97723.5;;;18.29;64.71
23361;BME280;11852;50.082;18.554;2023-07-28T03:58:15;97723.5;;;18.24;64.83
23361;BME280;11852;50.082;18.554;2023-07-28T03:59:19;97729.5;;;18.28;64.75
23361;BME280;11852;50.082;18.554;2023-07-28T04:00:24;97729.5;;;18.16;65.4
23361;BME280;11852;50.082;18.554;2023-07-28T04:01:29;97723.0;;;18.07;65.75
23361;BME280;11852;50.082;18.554;2023-07-28T04:02:34;97722.0;;;18.18;65.4
23361;BME280;11852;50.082;18.554;2023-07-28T04:03:40;97725.5;;;18.18;65.56
23361;BME280;11852;50.082;18.554;2023-07-28T04:04:44;97723.0;;;18.17;65.89
23361;BME280;11852;50.082;18.554;2023-07-28T04:05:50;97721.5;;;18.15;66.08
23361;BME280;11852;50.082;18.554;2023-07-28T04:06:55;97718.0;;;18.09;66.32
23361;BME280;11852;50.082;18.554;2023-07-28T04:08:01;97719.0;;;18.06;66.73
23361;BME280;11852;50.082;18.554;2023-07-28T04:09:06;97718.0;;;18.1;66.83
23361;BME280;11852;50.082;18.554;2023-07-28T04:10:10;97718.0;;;18.06;67.0
23361;BME280;11852;50.082;18.554;2023-07-28T04:12:16;97722.5;;;18.03;67.31
23361;BME280;11852;50.082;18.554;2023-07-28T04:13:21;97732.0;;;18.08;67.47
23361;BME280;11852;50.082;18.554;2023-07-28T04:14:25;97721.5;;;17.94;68.57
23361;BME280;11852;50.082;18.554;2023-07-28T04:15:30;97721.0;;;17.9;68.94
23361;BME280;11852;50.082;18.554;2023-07-28T04:16:35;97719.5;;;17.92;68.91
23361;BME280;11852;50.082;18.554;2023-07-28T04:17:40;97722.5;;;17.94;68.96
23361;BME280;11852;50.082;18.554;2023-07-28T04:18:44;97721.5;;;18.0;69.19
23361;BME280;11852;50.082;18.554;2023-07-28T04:19:49;97721.0;;;17.92;70.03
23361;BME280;11852;50.082;18.554;2023-07-28T04:20:55;97723.0;;;17.76;71.21
23361;BME280;11852;50.082;18.554;2023-07-28T04:22:00;97724.0;;;17.77;71.29
23361;BME280;11852;50.082;18.554;2023-07-28T04:23:05;97725.0;;;17.78;71.23
23361;BME280;11852;50.082;18.554;2023-07-28T04:24:11;97720.0;;;17.6;72.74
23361;BME280;11852;50.082;18.554;2023-07-28T04:25:17;97726.5;;;17.51;73.51
23361;BME280;11852;50.082;18.554;2023-07-28T04:26:22;97722.5;;;17.6;73.63
23361;BME280;11852;50.082;18.554;2023-07-28T04:27:26;97722.5;;;17.76;73.66
23361;BME280;11852;50.082;18.554;2023-07-28T04:28:31;97720.49;;;17.7;74.41
23361;BME280;11852;50.082;18.554;2023-07-28T04:29:36;97722.5;;;17.51;76.04
23361;BME280;11852;50.082;18.554;2023-07-28T04:30:42;97722.0;;;17.61;75.49
23361;BME280;11852;50.082;18.554;2023-07-28T04:31:47;97723.5;;;17.4;76.76
23361;BME280;11852;50.082;18.554;2023-07-28T04:32:51;97723.0;;;17.41;77.18
23361;BME280;11852;50.082;18.554;2023-07-28T04:33:56;97721.5;;;17.38;78.14
23361;BME280;11852;50.082;18.554;2023-07-28T04:35:01;97720.0;;;17.17;79.78
23361;BME280;11852;50.082;18.554;2023-07-28T04:36:06;97720.49;;;17.1;81.13
23361;BME280;11852;50.082;18.554;2023-07-28T04:37:11;97724.0;;;17.18;80.76
23361;BME280;11852;50.082;18.554;2023-07-28T04:38:16;97730.0;;;17.13;80.88
23361;BME280;11852;50.082;18.554;2023-07-28T04:39:22;97732.49;;;17.11;81.43
23361;BME280;11852;50.082;18.554;2023-07-28T04:40:27;97737.0;;;17.13;80.93
23361;BME280;11852;50.082;18.554;2023-07-28T04:41:32;97741.0;;;17.0;82.15
23361;BME280;11852;50.082;18.554;2023-07-28T04:42:37;97741.5;;;17.06;82.2
23361;BME280;11852;50.082;18.554;2023-07-28T04:43:42;97738.0;;;17.03;83.47
23361;BME280;11852;50.082;18.554;2023-07-28T04:44:47;97740.0;;;17.0;83.33
23361;BME280;11852;50.082;18.554;2023-07-28T04:45:52;97726.5;;;16.83;84.49
23361;BME280;11852;50.082;18.554;2023-07-28T04:46:57;97732.49;;;16.83;84.29
23361;BME280;11852;50.082;18.554;2023-07-28T04:48:02;97728.0;;;16.84;84.61
23361;BME280;11852;50.082;18.554;2023-07-28T04:49:07;97733.5;;;16.85;84.62
23361;BME280;11852;50.082;18.554;2023-07-28T04:50:12;97728.5;;;16.9;84.87
23361;BME280;11852;50.082;18.554;2023-07-28T04:51:17;97724.5;;;16.86;85.21
23361;BME280;11852;50.082;18.554;2023-07-28T04:52:22;97732.49;;;16.77;85.44
23361;BME280;11852;50.082;18.554;2023-07-28T04:53:27;97728.5;;;16.67;85.89
23361;BME280;11852;50.082;18.554;2023-07-28T04:54:33;97725.5;;;16.83;85.38
23361;BME280;11852;50.082;18.554;2023-07-28T04:55:39;97730.5;;;16.62;86.58
23361;BME280;11852;50.082;18.554;2023-07-28T04:56:44;97722.5;;;16.55;86.73
23361;BME280;11852;50.082;18.554;2023-07-28T04:57:51;97729.5;;;16.6;86.56
23361;BME280;11852;50.082;18.554;2023-07-28T04:58:56;97725.5;;;16.69;86.25
23361;BME280;11852;50.082;18.554;2023-07-28T05:00:02;97730.0;;;16.59;86.88
23361;BME280;11852;50.082;18.554;2023-07-28T05:01:07;97726.0;;;16.63;86.63
23361;BME280;11852;50.082;18.554;2023-07-28T05:02:12;97731.49;;;16.53;87.02
23361;BME280;11852;50.082;18.554;2023-07-28T05:03:17;97728.5;;;16.53;86.84
23361;BME280;11852;50.082;18.554;2023-07-28T05:04:22;97724.5;;;16.73;86.07
23361;BME280;11852;50.082;18.554;2023-07-28T05:05:28;97725.5;;;16.74;86.28
23361;BME280;11852;50.082;18.554;2023-07-28T05:06:32;97724.0;;;16.63;86.65
23361;BME280;11852;50.082;18.554;2023-07-28T05:07:37;97724.5;;;16.69;86.38
23361;BME280;11852;50.082;18.554;2023-07-28T05:08:42;97726.5;;;16.8;86.03
23361;BME280;11852;50.082;18.554;2023-07-28T05:09:47;97730.0;;;16.71;86.51
23361;BME280;11852;50.082;18.554;2023-07-28T05:10:52;97733.5;;;16.7;86.88
23361;BME280;11852;50.082;18.554;2023-07-28T05:11:56;97726.0;;;16.67;86.83
23361;BME280;11852;50.082;18.554;2023-07-28T05:13:05;97728.5;;;16.56;87.01
23361;BME280;11852;50.082;18.554;2023-07-28T05:14:10;97730.5;;;16.56;87.17
23361;BME280;11852;50.082;18.554;2023-07-28T05:15:15;97725.0;;;16.51;87.59
23361;BME280;11852;50.082;18.554;2023-07-28T05:16:20;97724.5;;;16.56;87.4
23361;BME280;11852;50.082;18.554;2023-07-28T05:17:25;97728.0;;;16.51;87.64
23361;BME280;11852;50.082;18.554;2023-07-28T05:18:29;97729.51;;;16.51;87.54
23361;BME280;11852;50.082;18.554;2023-07-28T05:19:36;97731.99;;;16.59;87.54
23361;BME280;11852;50.082;18.554;2023-07-28T05:20:40;97736.5;;;16.65;87.51
23361;BME280;11852;50.082;18.554;2023-07-28T05:21:45;97734.5;;;16.63;87.58
23361;BME280;11852;50.082;18.554;2023-07-28T05:22:50;97737.5;;;16.58;87.51
23361;BME280;11852;50.082;18.554;2023-07-28T05:23:55;97734.0;;;16.46;88.06
23361;BME280;11852;50.082;18.554;2023-07-28T05:25:01;97734.0;;;16.52;87.82
23361;BME280;11852;50.082;18.554;2023-07-28T05:26:06;97734.5;;;16.53;87.84
23361;BME280;11852;50.082;18.554;2023-07-28T05:27:11;97734.5;;;16.54;88.01
23361;BME280;11852;50.082;18.554;2023-07-28T05:28:16;97736.5;;;16.63;87.54
23361;BME280;11852;50.082;18.554;2023-07-28T05:29:21;97734.0;;;16.51;88.13
23361;BME280;11852;50.082;18.554;2023-07-28T05:30:26;97735.5;;;16.63;87.67
23361;BME280;11852;50.082;18.554;2023-07-28T05:31:31;97737.5;;;16.64;87.81
23361;BME280;11852;50.082;18.554;2023-07-28T05:32:36;97729.0;;;16.49;88.43
23361;BME280;11852;50.082;18.554;2023-07-28T05:33:41;97725.0;;;16.62;87.9
23361;BME280;11852;50.082;18.554;2023-07-28T05:34:46;97730.5;;;16.7;87.33
23361;BME280;11852;50.082;18.554;2023-07-28T05:35:58;97733.0;;;16.56;88.16
23361;BME280;11852;50.082;18.554;2023-07-28T05:36:55;97736.5;;;16.62;87.84
23361;BME280;11852;50.082;18.554;2023-07-28T05:38:00;97741.0;;;16.59;88.1
23361;BME280;11852;50.082;18.554;2023-07-28T05:39:05;97738.5;;;16.65;87.88
23361;BME280;11852;50.082;18.554;2023-07-28T05:40:12;97735.0;;;16.74;87.74
23361;BME280;11852;50.082;18.554;2023-07-28T05:41:16;97732.5;;;16.69;88.01
23361;BME280;11852;50.082;18.554;2023-07-28T05:42:21;97732.0;;;16.67;88.0
23361;BME280;11852;50.082;18.554;2023-07-28T05:43:26;97730.5;;;16.67;88.03
23361;BME280;11852;50.082;18.554;2023-07-28T05:44:31;97734.5;;;16.8;87.54
23361;BME280;11852;50.082;18.554;2023-07-28T05:45:36;97738.0;;;16.69;88.17
23361;BME280;11852;50.082;18.554;2023-07-28T05:46:41;97738.5;;;16.66;87.93
23361;BME280;11852;50.082;18.554;2023-07-28T05:47:46;97739.5;;;16.68;88.15
23361;BME280;11852;50.082;18.554;2023-07-28T05:48:50;97736.0;;;16.77;87.76
23361;BME280;11852;50.082;18.554;2023-07-28T05:49:55;97732.99;;;16.83;87.4
23361;BME280;11852;50.082;18.554;2023-07-28T05:51:01;97734.0;;;16.58;88.63